Time;durP1;ratioP1;P1;durP2;ratioP2;P2;SDS_P1;SDS_P2;PMS_P1;PMS_P2;Temp;Humidity;BMP_temperature;BMP_pressure;BME280_temperature;BME280_humidity;BME280_pressure;Samples;Min_cycle;Max_cycle;Signal;HPM_P1;HPM_P2
2022/06/06 00:01:58;;;;;;;8.40;4.17;;;;;;;25.77;50.47;99111.41;5052939;28;20196;-56
2022/06/06 00:04:27;;;;;;;6.83;4.57;;;;;;;25.63;51.07;99110.41;5052638;28;20194;-56
2022/06/06 00:06:55;;;;;;;5.40;4.60;;;;;;;25.57;51.48;99108.13;5052611;28;20196;-57
2022/06/06 00:09:22;;;;;;;6.37;4.30;;;;;;;25.52;51.77;99097.81;5052242;28;20220;-56
2022/06/06 00:11:50;;;;;;;8.23;6.95;;;;;;;25.41;52.01;99104.53;5051213;28;20849;-56
2022/06/06 00:14:18;;;;;;;10.50;8.17;;;;;;;25.42;51.82;99095.69;5052342;28;20706;-57
2022/06/06 00:16:46;;;;;;;11.93;8.37;;;;;;;25.39;51.89;99094.06;5052450;28;20204;-56
2022/06/06 00:19:13;;;;;;;9.73;6.97;;;;;;;25.30;52.60;99101.59;5071540;28;20685;-56
2022/06/06 00:21:42;;;;;;;10.33;8.67;;;;;;;25.26;52.40;99102.66;5072579;28;20590;-56
2022/06/06 00:24:11;;;;;;;14.23;8.47;;;;;;;25.20;52.30;99104.66;5072104;28;20244;-56
2022/06/06 00:26:38;;;;;;;13.10;10.77;;;;;;;25.13;52.80;99105.03;5072677;28;20195;-56
2022/06/06 00:29:08;;;;;;;14.37;9.90;;;;;;;25.08;53.12;99096.50;5072422;28;20218;-56
2022/06/06 00:37:06;;;;;;;11.43;9.80;;;;;;;24.88;54.19;99086.13;5072237;28;20199;-56
2022/06/06 00:39:33;;;;;;;11.60;9.50;;;;;;;24.87;54.34;99087.91;5072068;28;20203;-56
2022/06/06 00:42:00;;;;;;;9.27;8.27;;;;;;;24.85;54.45;99083.63;5072239;28;20223;-56
2022/06/06 00:44:33;;;;;;;15.23;8.03;;;;;;;24.81;54.90;99075.03;5071745;28;20221;-56
2022/06/06 00:47:07;;;;;;;11.20;6.70;;;;;;;24.82;54.72;99076.75;5071828;28;20249;-56
2022/06/06 00:49:37;;;;;;;6.53;5.93;;;;;;;24.84;54.27;99069.66;5071796;28;20290;-56
2022/06/06 00:52:09;;;;;;;7.60;5.83;;;;;;;24.88;54.04;99060.69;5069840;28;20364;-57
2022/06/06 00:54:36;;;;;;;5.93;5.43;;;;;;;24.91;54.04;99067.56;5055750;28;20215;-56
2022/06/06 00:57:16;;;;;;;6.60;5.17;;;;;;;24.90;53.93;99069.34;5053569;28;20200;-57
2022/06/06 00:59:45;;;;;;;7.83;5.30;;;;;;;24.95;53.99;99069.13;5064427;28;20192;-56
2022/06/06 01:02:14;;;;;;;5.57;4.50;;;;;;;24.95;53.56;99066.50;5070910;28;20188;-57
2022/06/06 01:04:41;;;;;;;5.93;4.70;;;;;;;24.92;53.67;99062.22;5071528;28;20194;-65
2022/06/06 01:07:10;;;;;;;10.60;4.37;;;;;;;24.85;54.37;99060.00;5071014;28;20628;-57
2022/06/06 01:09:39;;;;;;;7.60;4.80;;;;;;;24.83;54.59;99070.56;5070157;28;20731;-57
2022/06/06 01:12:10;;;;;;;5.20;4.03;;;;;;;24.75;55.29;99071.84;5071178;28;20248;-57
2022/06/06 01:14:40;;;;;;;8.00;5.00;;;;;;;24.56;56.02;99062.19;5071990;28;20191;-57
2022/06/06 01:17:15;;;;;;;5.60;4.27;;;;;;;24.34;56.29;99037.00;5071387;28;20230;-57
2022/06/06 01:20:03;;;;;;;5.47;3.77;;;;;;;24.47;56.24;99054.75;5071596;28;20186;-57
2022/06/06 01:23:00;;;;;;;7.53;4.00;;;;;;;24.47;56.66;99043.41;5071270;28;20204;-57
2022/06/06 01:26:17;;;;;;;6.87;4.57;;;;;;;24.38;56.87;99043.81;5047646;28;20199;-57
2022/06/06 01:28:55;;;;;;;4.85;4.20;;;;;;;24.39;57.10;99032.41;5063098;28;20516;-57
2022/06/06 01:31:26;;;;;;;7.73;4.37;;;;;;;24.45;56.67;99027.69;5051110;28;20215;-57
2022/06/06 01:33:56;;;;;;;6.40;3.93;;;;;;;24.46;56.54;99023.31;5064306;28;20292;-57
2022/06/06 01:36:25;;;;;;;6.10;4.60;;;;;;;24.35;56.41;99012.44;5071178;28;20559;-57
2022/06/06 01:38:52;;;;;;;5.17;4.03;;;;;;;24.36;56.49;99015.03;5071214;28;20187;-57
2022/06/06 01:41:27;;;;;;;9.00;4.20;;;;;;;24.39;56.35;99014.84;5071283;28;20188;-57
2022/06/06 01:44:02;;;;;;;4.10;3.80;;;;;;;24.37;56.32;99021.09;5070488;28;20290;-57
2022/06/06 01:46:34;;;;;;;5.22;4.40;;;;;;;24.42;56.61;99021.75;5067717;28;20859;-57
2022/06/06 01:49:02;;;;;;;9.70;4.50;;;;;;;24.44;56.57;99018.13;5069074;28;20180;-57
2022/06/06 01:51:31;;;;;;;9.17;4.60;;;;;;;24.42;56.86;99019.97;5070407;28;21082;-57
2022/06/06 01:53:58;;;;;;;6.33;3.93;;;;;;;24.37;56.81;99010.59;5067891;28;20249;-57
2022/06/06 01:56:28;;;;;;;6.70;4.47;;;;;;;24.28;57.56;99021.56;5070152;28;20180;-64
2022/06/06 01:58:57;;;;;;;7.67;4.40;;;;;;;24.26;57.81;99020.75;5070560;28;20195;-64
2022/06/06 02:01:25;;;;;;;5.73;4.40;;;;;;;24.26;57.95;99018.97;5070274;28;20264;-64
2022/06/06 02:03:53;;;;;;;7.37;4.13;;;;;;;24.14;58.13;99023.97;5071192;28;20180;-65
2022/06/06 02:06:20;;;;;;;6.13;4.30;;;;;;;24.16;57.85;99027.38;5070671;28;20252;-65
2022/06/06 02:08:47;;;;;;;6.13;4.30;;;;;;;24.16;57.57;99022.13;5070539;28;20227;-64
2022/06/06 02:11:14;;;;;;;6.80;4.33;;;;;;;24.13;57.97;99024.88;5070718;28;20219;-64
2022/06/06 02:13:42;;;;;;;5.33;4.57;;;;;;;24.10;58.08;99018.00;5070195;28;20449;-65
2022/06/06 02:16:10;;;;;;;4.40;3.90;;;;;;;24.10;58.05;99015.38;5070756;28;20594;-65
2022/06/06 02:18:37;;;;;;;8.10;4.43;;;;;;;24.08;58.08;99011.94;5070404;28;20202;-65
2022/06/06 02:21:04;;;;;;;6.90;4.00;;;;;;;24.07;58.03;99000.59;5070432;28;20728;-64
2022/06/06 02:23:31;;;;;;;6.60;4.20;;;;;;;24.03;57.80;98990.31;5070401;28;20666;-65
2022/06/06 02:25:58;;;;;;;8.60;4.60;;;;;;;24.02;57.76;98997.31;5070641;28;20191;-65
2022/06/06 02:28:25;;;;;;;5.43;4.73;;;;;;;23.84;57.98;98969.28;5070550;28;20195;-64
2022/06/06 02:30:52;;;;;;;4.67;4.27;;;;;;;23.95;58.16;98980.13;5070386;28;20219;-65
2022/06/06 02:33:20;;;;;;;8.00;4.30;;;;;;;24.01;58.40;98979.00;5069631;28;20438;-64
2022/06/06 02:35:48;;;;;;;5.23;3.97;;;;;;;24.05;57.89;98993.72;5070281;28;20207;-63
2022/06/06 02:38:15;;;;;;;8.70;4.33;;;;;;;24.05;57.68;99006.81;5070656;28;20249;-63
2022/06/06 02:40:44;;;;;;;4.73;4.20;;;;;;;24.00;58.08;99000.94;5070659;28;20188;-63
2022/06/06 02:43:12;;;;;;;5.17;4.67;;;;;;;23.96;58.01;98988.88;5070557;28;20199;-63
2022/06/06 02:45:39;;;;;;;7.70;4.17;;;;;;;24.04;58.10;98998.09;5070358;28;20193;-64
2022/06/06 02:48:08;;;;;;;6.67;4.57;;;;;;;24.02;57.92;98999.94;5070186;28;20551;-64
2022/06/06 02:50:36;;;;;;;8.40;4.93;;;;;;;24.02;58.32;99005.19;5070382;28;20288;-64
2022/06/06 02:53:03;;;;;;;7.00;4.77;;;;;;;24.08;58.72;98993.56;5070471;28;20260;-64
2022/06/06 02:55:31;;;;;;;7.40;5.00;;;;;;;24.10;57.63;99002.25;5071483;28;20191;-63
2022/06/06 02:57:59;;;;;;;7.47;4.80;;;;;;;24.09;57.84;99005.78;5074316;28;20195;-63
2022/06/06 03:00:29;;;;;;;9.03;4.73;;;;;;;24.09;58.30;99000.53;5074221;28;20257;-64
2022/06/06 03:02:56;;;;;;;5.30;4.78;;;;;;;24.19;57.92;99006.22;5073078;28;20438;-65
2022/06/06 03:05:31;;;;;;;5.83;4.60;;;;;;;24.32;57.23;98999.47;5074355;28;20274;-63
2022/06/06 03:08:09;;;;;;;6.10;5.13;;;;;;;24.39;57.17;99009.59;5073966;28;20191;-63
2022/06/06 03:10:49;;;;;;;5.37;4.83;;;;;;;24.34;58.03;99006.34;5073982;28;20215;-63
2022/06/06 03:13:36;;;;;;;8.83;5.13;;;;;;;24.35;57.80;99018.56;5073930;28;20601;-63
2022/06/06 03:22:11;;;;;;;7.90;5.20;;;;;;;24.30;56.38;99080.09;5073712;28;20680;-64
2022/06/06 03:24:51;;;;;;;6.60;5.83;;;;;;;24.13;57.39;99166.63;5073757;28;20543;-63
2022/06/06 03:27:28;;;;;;;8.17;4.30;;;;;;;24.03;58.02;99200.28;5073313;28;20676;-63
2022/06/06 03:30:02;;;;;;;7.83;4.47;;;;;;;23.60;60.45;99230.09;5073590;28;20195;-64
2022/06/06 03:32:39;;;;;;;7.77;5.10;;;;;;;23.37;63.81;99252.00;5073635;28;20259;-63
2022/06/06 03:35:20;;;;;;;11.57;5.37;;;;;;;22.98;70.37;99266.59;5072831;28;20191;-63
2022/06/06 03:37:53;;;;;;;8.60;6.03;;;;;;;22.66;74.56;99282.66;5073406;28;20269;-63
2022/06/06 03:40:30;;;;;;;10.10;6.40;;;;;;;22.52;76.69;99296.22;5071880;28;20743;-63
2022/06/06 03:43:02;;;;;;;6.30;4.87;;;;;;;22.31;78.95;99302.19;5073278;28;20204;-57
2022/06/06 03:45:38;;;;;;;16.33;6.13;;;;;;;22.16;80.43;99355.91;5073349;28;20191;-57
2022/06/06 03:48:35;;;;;;;14.07;6.47;;;;;;;22.18;81.60;99371.56;5072551;28;20195;-57
2022/06/06 03:51:08;;;;;;;12.85;6.18;;;;;;;22.14;82.80;99402.19;5072066;28;20598;-56
2022/06/06 03:53:43;;;;;;;9.00;6.00;;;;;;;22.12;84.33;99408.38;5072266;28;20196;-57
2022/06/06 03:56:24;;;;;;;7.60;6.53;;;;;;;22.05;85.10;99417.34;5073050;28;20198;-56
2022/06/06 03:58:53;;;;;;;11.43;6.40;;;;;;;21.84;85.92;99405.75;5073124;28;20218;-57
2022/06/06 04:01:23;;;;;;;9.90;6.10;;;;;;;21.93;86.66;99436.91;5073253;28;20195;-56
2022/06/06 04:03:51;;;;;;;7.00;5.73;;;;;;;21.90;87.23;99434.38;5072866;28;20195;-57
2022/06/06 04:06:19;;;;;;;6.93;5.80;;;;;;;21.87;86.76;99441.44;5072261;28;20245;-56
2022/06/06 04:08:45;;;;;;;6.87;6.13;;;;;;;21.79;87.40;99439.03;5072232;28;20235;-56
2022/06/06 04:11:26;;;;;;;9.88;6.75;;;;;;;21.86;89.50;99437.09;5071578;28;20452;-56
2022/06/06 04:14:03;;;;;;;10.37;6.60;;;;;;;21.76;90.75;99431.28;5072700;28;20544;-56
2022/06/06 04:16:46;;;;;;;9.67;6.73;;;;;;;21.64;92.03;99429.91;5072541;28;20187;-56
2022/06/06 04:19:26;;;;;;;12.03;7.50;;;;;;;21.47;92.94;99426.06;5072511;28;20199;-56
2022/06/06 04:22:03;;;;;;;11.97;8.00;;;;;;;21.47;94.42;99415.59;5071975;28;20191;-56
2022/06/06 04:24:45;;;;;;;11.70;8.60;;;;;;;21.49;94.92;99395.50;5072149;28;20681;-56
2022/06/06 04:27:27;;;;;;;10.40;8.13;;;;;;;21.41;94.83;99395.72;5072341;28;20539;-56
2022/06/06 04:30:02;;;;;;;9.23;7.70;;;;;;;21.43;95.25;99388.69;5072238;28;20192;-56
2022/06/06 04:32:43;;;;;;;12.13;8.77;;;;;;;21.29;94.73;99385.59;5072250;28;20430;-57
2022/06/06 04:35:23;;;;;;;15.32;9.00;;;;;;;21.39;95.71;99378.38;5071204;28;20426;-56
2022/06/06 04:38:01;;;;;;;15.17;9.10;;;;;;;21.45;96.22;99381.63;5071985;28;20191;-56
2022/06/06 04:40:37;;;;;;;14.10;8.90;;;;;;;21.30;96.09;99355.09;5071917;28;20278;-56
2022/06/06 04:43:14;;;;;;;12.37;8.07;;;;;;;21.47;96.55;99371.16;5071945;28;20227;-56
2022/06/06 04:45:47;;;;;;;23.53;7.93;;;;;;;21.48;96.07;99350.19;5066938;28;20184;-57
2022/06/06 04:48:15;;;;;;;12.37;9.50;;;;;;;21.39;96.59;99328.72;5071722;28;20203;-56
2022/06/06 04:50:44;;;;;;;13.50;9.03;;;;;;;21.32;96.87;99303.63;5068554;28;20590;-56
2022/06/06 04:53:15;;;;;;;15.47;9.37;;;;;;;21.24;96.85;99263.81;5069339;28;20551;-56
2022/06/06 04:55:43;;;;;;;14.15;8.50;;;;;;;21.32;96.98;99253.97;5070895;28;20433;-57
2022/06/06 04:58:12;;;;;;;13.07;7.63;;;;;;;21.42;96.44;99248.44;5071638;28;20203;-57
2022/06/06 05:00:40;;;;;;;16.33;7.47;;;;;;;21.44;96.59;99246.63;5071280;28;20669;-57
2022/06/06 05:03:08;;;;;;;13.73;7.67;;;;;;;21.44;95.57;99225.72;5069824;28;20234;-56
2022/06/06 05:05:45;;;;;;;10.63;8.03;;;;;;;21.46;96.15;99181.22;5065421;28;20200;-57
2022/06/06 05:08:31;;;;;;;9.33;7.73;;;;;;;21.46;96.08;99128.94;5065024;28;20260;-57
2022/06/06 05:11:11;;;;;;;12.10;8.10;;;;;;;21.50;96.10;99110.50;5057142;28;20216;-57
2022/06/06 05:13:59;;;;;;;14.93;8.77;;;;;;;21.57;96.74;99143.34;5069072;28;20211;-57
2022/06/06 05:16:40;;;;;;;14.27;8.60;;;;;;;21.59;96.91;99172.06;5063937;28;20192;-57
2022/06/06 05:19:28;;;;;;;13.33;7.80;;;;;;;21.65;93.21;99217.16;5056177;28;20739;-57
2022/06/06 05:22:08;;;;;;;12.87;6.57;;;;;;;21.55;89.85;99200.06;5057565;28;20199;-57
2022/06/06 05:25:03;;;;;;;10.47;6.17;;;;;;;21.80;88.66;99226.28;5064325;28;20197;-57
2022/06/06 05:27:56;;;;;;;8.17;5.97;;;;;;;21.88;87.90;99249.59;5071109;28;20195;-57
2022/06/06 05:30:32;;;;;;;9.10;6.27;;;;;;;21.80;88.74;99235.88;5070262;28;20192;-57
2022/06/06 05:33:05;;;;;;;11.87;6.77;;;;;;;21.79;89.26;99227.16;5071153;28;20226;-57
2022/06/06 05:36:05;;;;;;;10.83;6.23;;;;;;;21.84;89.60;99180.78;5071054;28;20187;-57
2022/06/06 05:38:57;;;;;;;11.30;6.50;;;;;;;21.94;90.30;99144.75;5070503;28;20543;-57
2022/06/06 05:41:36;;;;;;;11.52;7.88;;;;;;;22.11;91.09;99151.06;5053076;28;20426;-57
2022/06/06 05:44:11;;;;;;;11.90;8.07;;;;;;;22.23;90.18;99157.63;5070416;28;20206;-57
2022/06/06 05:46:50;;;;;;;13.37;7.53;;;;;;;22.25;90.33;99143.56;5070451;28;20202;-57
2022/06/06 05:49:33;;;;;;;9.43;6.83;;;;;;;22.42;88.00;99140.34;5070329;28;20195;-56
2022/06/06 05:52:14;;;;;;;11.20;7.50;;;;;;;22.62;86.87;99134.34;5070073;28;20219;-56
2022/06/06 05:54:57;;;;;;;7.53;5.47;;;;;;;22.85;84.71;99140.44;5070368;28;20192;-56
2022/06/06 05:57:58;;;;;;;8.13;5.70;;;;;;;23.17;84.53;99149.66;5070226;28;20192;-56
2022/06/06 06:00:36;;;;;;;6.73;4.97;;;;;;;23.31;82.75;99136.84;5070265;28;20661;-56
2022/06/06 06:03:20;;;;;;;9.33;5.50;;;;;;;23.45;81.46;99138.94;5070302;28;20214;-56
2022/06/06 06:06:06;;;;;;;7.87;6.23;;;;;;;23.69;82.92;99131.78;5066617;28;20191;-56
2022/06/06 06:08:55;;;;;;;9.70;5.70;;;;;;;23.96;79.51;99139.31;5069287;28;20770;-56
2022/06/06 06:11:39;;;;;;;8.07;4.70;;;;;;;24.11;78.82;99150.97;5049989;28;20212;-56
2022/06/06 06:14:17;;;;;;;10.40;6.10;;;;;;;23.94;79.07;99161.31;5050170;28;20198;-56
2022/06/06 06:16:48;;;;;;;7.70;6.17;;;;;;;23.89;79.60;99190.38;5051026;28;20200;-55
2022/06/06 06:19:19;;;;;;;7.13;4.93;;;;;;;23.91;78.76;99203.44;5049819;28;20193;-55
2022/06/06 06:21:53;;;;;;;9.93;5.50;;;;;;;23.92;80.04;99202.53;5065197;28;20191;-55
2022/06/06 06:24:27;;;;;;;13.20;6.73;;;;;;;23.87;79.62;99210.56;5069943;28;20728;-55
2022/06/06 06:26:57;;;;;;;9.68;7.07;;;;;;;24.08;81.64;99209.69;5069085;28;20453;-57
2022/06/06 06:29:24;;;;;;;8.47;6.17;;;;;;;24.49;78.85;99209.66;5069885;28;20179;-57
2022/06/06 06:32:07;;;;;;;10.57;6.80;;;;;;;24.77;80.31;99196.97;5069580;28;20215;-57
2022/06/06 06:34:55;;;;;;;9.77;6.45;;;;;;;24.61;79.20;99195.97;5069908;28;20356;-57
2022/06/06 06:37:39;;;;;;;9.67;6.37;;;;;;;24.75;80.65;99197.97;5070160;28;20199;-57
2022/06/06 06:40:25;;;;;;;9.00;5.20;;;;;;;24.88;77.84;99196.53;5069910;28;20191;-56
2022/06/06 06:43:08;;;;;;;11.73;5.27;;;;;;;24.92;75.26;99196.28;5068608;28;20200;-56
2022/06/06 06:45:38;;;;;;;8.70;4.73;;;;;;;24.79;74.82;99199.53;5068364;28;20186;-56
2022/06/06 06:48:11;;;;;;;9.37;5.53;;;;;;;24.79;74.37;99195.16;5066817;28;20200;-56
2022/06/06 06:50:49;;;;;;;10.10;5.50;;;;;;;24.84;74.00;99206.31;5067054;28;20183;-56
2022/06/06 06:53:42;;;;;;;7.07;5.70;;;;;;;24.93;75.56;99210.28;5066975;28;20192;-56
2022/06/06 06:56:20;;;;;;;10.07;5.70;;;;;;;25.03;75.97;99206.31;5065414;28;20198;-56
2022/06/06 06:58:53;;;;;;;11.53;5.57;;;;;;;25.04;75.06;99214.13;5067243;28;20573;-57
2022/06/06 07:01:31;;;;;;;14.43;6.55;;;;;;;25.10;76.05;99237.53;5066505;28;20441;-56
2022/06/06 07:10:08;;;;;;;11.10;6.00;;;;;;;24.96;75.34;99260.97;5065251;28;21146;-56
2022/06/06 07:13:06;;;;;;;11.47;7.57;;;;;;;25.06;78.59;99259.59;5065973;28;20199;-55
2022/06/06 07:15:41;;;;;;;12.73;7.70;;;;;;;25.20;78.71;99256.31;5062161;28;20191;-56
2022/06/06 07:18:11;;;;;;;10.97;8.03;;;;;;;25.15;79.25;99267.06;5066367;28;20543;-56
2022/06/06 07:20:41;;;;;;;14.40;8.00;;;;;;;25.10;78.91;99273.47;5069042;28;20617;-56
2022/06/06 07:23:12;;;;;;;14.32;8.60;;;;;;;24.76;81.01;99279.38;5068616;28;20438;-56
2022/06/06 07:25:41;;;;;;;13.80;7.67;;;;;;;24.65;79.40;99292.97;5066608;28;20230;-55
2022/06/06 07:28:12;;;;;;;11.40;6.87;;;;;;;24.45;79.92;99281.63;5069383;28;20643;-55
2022/06/06 07:30:42;;;;;;;13.70;7.53;;;;;;;24.23;81.92;99322.88;5068175;28;20195;-56
2022/06/06 07:33:32;;;;;;;16.33;8.27;;;;;;;23.84;83.50;99348.94;5048824;28;20698;-56
2022/06/06 07:36:13;;;;;;;13.30;7.70;;;;;;;23.77;83.71;99348.31;5058810;28;20204;-56
2022/06/06 07:38:58;;;;;;;13.10;7.57;;;;;;;23.74;83.93;99351.06;5049519;28;20226;-56
2022/06/06 07:41:30;;;;;;;14.57;8.03;;;;;;;23.84;82.80;99338.44;5065641;28;20192;-57
2022/06/06 07:44:15;;;;;;;12.47;6.83;;;;;;;23.80;80.75;99319.34;5072514;28;20202;-56
2022/06/06 07:46:57;;;;;;;10.80;6.50;;;;;;;23.81;80.90;99309.72;5072625;28;20237;-56
2022/06/06 07:49:33;;;;;;;10.20;6.82;;;;;;;23.85;80.22;99314.75;5067670;28;20964;-56
2022/06/06 07:52:07;;;;;;;11.00;6.90;;;;;;;23.93;81.06;99325.81;5072432;28;20229;-56
2022/06/06 07:54:47;;;;;;;7.47;5.50;;;;;;;24.03;80.63;99311.38;5062609;28;20207;-56
2022/06/06 07:57:25;;;;;;;8.57;6.77;;;;;;;24.05;80.23;99306.94;5062601;28;20195;-63
2022/06/06 08:00:06;;;;;;;9.30;7.57;;;;;;;23.98;82.36;99271.34;5052463;28;20593;-64
2022/06/06 08:02:48;;;;;;;14.27;7.80;;;;;;;23.94;83.26;99232.16;5052595;28;20192;-65
2022/06/06 08:05:30;;;;;;;16.27;9.13;;;;;;;23.84;85.78;99200.19;5052425;28;20253;-64
2022/06/06 08:08:07;;;;;;;13.83;8.90;;;;;;;23.80;87.37;99224.88;5062612;28;20279;-62
2022/06/06 08:10:41;;;;;;;20.55;11.43;;;;;;;23.84;89.48;99242.19;5070788;28;20469;-64
2022/06/06 08:13:27;;;;;;;14.63;10.93;;;;;;;23.88;89.86;99258.66;5069334;28;20664;-64
2022/06/06 08:16:04;;;;;;;17.57;10.03;;;;;;;24.03;90.32;99290.38;5069131;28;20619;-65
2022/06/06 08:19:04;;;;;;;14.87;9.20;;;;;;;24.20;88.40;99302.00;5051888;28;20655;-64
2022/06/06 08:21:36;;;;;;;12.27;8.13;;;;;;;24.45;85.96;99294.75;5044968;28;20199;-65
2022/06/06 08:24:06;;;;;;;11.27;8.17;;;;;;;24.72;84.77;99280.44;5051776;28;20579;-65
2022/06/06 08:26:38;;;;;;;19.00;8.67;;;;;;;24.70;85.81;99228.84;5051805;28;20632;-57
2022/06/06 08:29:07;;;;;;;15.50;8.97;;;;;;;25.23;85.49;99288.59;5052362;28;20311;-57
2022/06/06 08:31:34;;;;;;;15.57;8.57;;;;;;;25.54;83.99;99300.34;5051546;28;20687;-57
2022/06/06 08:34:01;;;;;;;15.10;7.60;;;;;;;25.64;79.90;99301.59;5051082;28;20257;-57
2022/06/06 08:37:00;;;;;;;18.57;8.33;;;;;;;25.79;81.09;99308.78;5051575;28;20192;-64
2022/06/06 08:39:42;;;;;;;15.27;8.40;;;;;;;25.74;79.71;99308.97;5048350;28;20435;-65
2022/06/06 08:42:24;;;;;;;11.80;9.43;;;;;;;25.90;81.59;99311.75;5052323;28;20234;-65
2022/06/06 08:44:57;;;;;;;9.07;6.67;;;;;;;25.68;78.34;99311.06;5065816;28;20211;-65
2022/06/06 08:47:33;;;;;;;14.63;7.77;;;;;;;25.67;78.94;99323.38;5051525;28;20192;-65
2022/06/06 08:53:36;;;;;;;9.20;6.63;;;;;;;25.33;79.31;99341.63;5050708;28;20215;-65
2022/06/06 08:56:29;;;;;;;15.87;6.93;;;;;;;25.19;80.39;99352.78;5051287;28;20578;-65
2022/06/06 08:59:41;;;;;;;6.13;4.87;;;;;;;24.92;74.46;99322.47;5066203;28;20223;-65
2022/06/06 09:02:49;;;;;;;9.27;5.00;;;;;;;24.62;74.36;99287.00;5071333;28;20187;-65
2022/06/06 09:05:50;;;;;;;7.60;5.77;;;;;;;24.59;77.95;99266.13;5035345;28;20203;-63
2022/06/06 09:08:58;;;;;;;10.53;6.87;;;;;;;24.56;82.51;99232.94;5050008;28;20512;-63
2022/06/06 09:11:59;;;;;;;10.13;6.32;;;;;;;24.48;80.66;99221.06;5017132;28;20432;-65
2022/06/06 09:15:02;;;;;;;9.68;6.57;;;;;;;24.45;82.44;99253.59;5050622;28;20915;-63
2022/06/06 09:17:52;;;;;;;8.33;4.60;;;;;;;24.55;76.05;99294.31;5050701;28;20650;-64
2022/06/06 09:20:51;;;;;;;8.50;4.93;;;;;;;24.81;76.45;99295.81;5050822;28;20192;-64
2022/06/06 09:23:38;;;;;;;9.47;4.87;;;;;;;24.93;73.54;99292.66;5061644;28;20192;-64
2022/06/06 09:26:23;;;;;;;9.23;7.10;;;;;;;25.23;77.62;99295.63;5070602;28;20289;-64
2022/06/06 09:29:43;;;;;;;8.30;5.83;;;;;;;25.32;77.27;99289.97;5070731;28;20223;-64
2022/06/06 09:32:51;;;;;;;10.10;4.90;;;;;;;25.42;73.37;99274.56;5070195;28;20215;-64
2022/06/06 09:35:39;;;;;;;5.80;5.10;;;;;;;25.33;71.39;99280.25;5070861;28;20207;-65
2022/06/06 09:38:14;;;;;;;8.03;5.20;;;;;;;25.40;74.09;99274.66;5064664;28;20192;-65
2022/06/06 09:40:58;;;;;;;8.32;5.88;;;;;;;25.47;72.64;99259.44;5076853;28;20550;-65
2022/06/06 09:43:34;;;;;;;8.40;4.87;;;;;;;25.55;70.64;99266.06;5065245;28;20202;-56
2022/06/06 09:46:43;;;;;;;12.03;5.53;;;;;;;25.55;70.77;99279.22;5066584;28;20297;-56
2022/06/06 09:49:34;;;;;;;9.40;5.13;;;;;;;25.71;68.84;99274.09;5065298;28;20582;-56
2022/06/06 09:52:45;;;;;;;7.37;6.33;;;;;;;25.75;71.83;99268.59;5067278;28;20330;-57
2022/06/06 09:59:03;;;;;;;8.13;5.33;;;;;;;26.05;68.84;99284.63;5068194;28;20554;-58
2022/06/06 10:02:04;;;;;;;11.23;6.40;;;;;;;26.06;69.98;99293.41;5042602;28;20597;-57
2022/06/06 10:05:20;;;;;;;9.63;7.03;;;;;;;26.10;70.32;99313.38;5067738;28;20212;-57
2022/06/06 10:08:16;;;;;;;12.20;6.10;;;;;;;25.87;70.24;99311.03;5067519;28;20445;-57
2022/06/06 10:11:19;;;;;;;12.97;6.53;;;;;;;25.69;72.08;99311.00;5067401;28;20188;-57
2022/06/06 10:14:07;;;;;;;10.40;7.17;;;;;;;25.60;73.69;99310.59;5067613;28;20234;-57
2022/06/06 10:16:48;;;;;;;11.07;6.50;;;;;;;25.52;74.29;99291.69;5068471;28;20188;-57
2022/06/06 10:19:32;;;;;;;9.97;7.23;;;;;;;25.23;75.77;99259.69;5066940;28;20531;-57
2022/06/06 10:22:30;;;;;;;9.60;7.50;;;;;;;25.18;77.83;99258.19;5067821;28;20658;-57
2022/06/06 10:25:12;;;;;;;9.63;7.53;;;;;;;25.14;78.79;99283.75;5067193;28;20532;-57
2022/06/06 10:27:59;;;;;;;12.60;7.10;;;;;;;24.92;76.72;99298.81;5049455;28;20234;-57
2022/06/06 10:30:36;;;;;;;15.53;9.17;;;;;;;24.88;78.47;99310.41;5049259;28;20192;-57
2022/06/06 10:33:37;;;;;;;9.63;7.57;;;;;;;24.89;79.17;99329.63;5049380;28;20227;-57
2022/06/06 10:36:34;;;;;;;11.80;7.40;;;;;;;24.82;79.45;99336.09;5049306;28;20215;-57
2022/06/06 10:39:14;;;;;;;10.63;7.53;;;;;;;24.83;80.03;99335.19;5049046;28;20192;-57
2022/06/06 10:42:11;;;;;;;11.07;7.27;;;;;;;24.80;79.91;99335.31;5049317;28;20195;-57
2022/06/06 10:45:03;;;;;;;12.97;8.13;;;;;;;24.76;80.33;99347.69;5042548;28;20571;-57
2022/06/06 10:47:47;;;;;;;13.50;8.00;;;;;;;24.76;80.58;99349.47;5049604;28;20196;-57
2022/06/06 10:50:23;;;;;;;17.97;7.67;;;;;;;24.71;80.85;99357.56;5048911;28;20233;-57
2022/06/06 10:53:15;;;;;;;13.10;7.70;;;;;;;24.65;81.62;99365.69;5048751;28;20219;-57
2022/06/06 10:56:19;;;;;;;9.50;6.30;;;;;;;24.56;79.50;99368.72;5048665;28;20439;-56
2022/06/06 10:59:19;;;;;;;9.63;6.27;;;;;;;24.41;79.35;99370.22;5049473;28;20207;-57
2022/06/06 11:02:25;;;;;;;12.73;5.43;;;;;;;24.30;80.80;99379.47;5049296;28;20193;-56
2022/06/06 11:05:25;;;;;;;9.17;5.67;;;;;;;24.19;81.75;99368.56;5049541;28;20587;-56
2022/06/06 11:08:23;;;;;;;7.40;4.97;;;;;;;24.00;80.08;99363.16;5003303;28;20275;-56
2022/06/06 11:11:30;;;;;;;12.90;5.67;;;;;;;23.98;79.59;99371.09;5068439;28;20244;-56
2022/06/06 11:14:04;;;;;;;6.03;3.90;;;;;;;23.85;76.95;99348.00;5064335;28;20612;-57
2022/06/06 11:17:03;;;;;;;9.97;4.50;;;;;;;23.80;77.26;99331.59;5067863;28;20199;-57
2022/06/06 11:20:12;;;;;;;6.83;4.40;;;;;;;23.73;76.39;99311.78;5072127;28;20199;-57
2022/06/06 11:22:43;;;;;;;12.30;5.43;;;;;;;23.67;77.51;99312.03;5071463;28;20187;-57
2022/06/06 11:25:13;;;;;;;6.10;3.50;;;;;;;23.77;76.80;99318.59;5071813;28;20238;-57
2022/06/06 11:28:11;;;;;;;10.63;5.07;;;;;;;23.83;76.15;99326.22;5072272;28;20215;-57
2022/06/06 11:31:00;;;;;;;8.33;4.90;;;;;;;23.76;76.80;99335.28;5070573;28;20192;-56
2022/06/06 11:34:10;;;;;;;7.57;5.70;;;;;;;23.62;78.86;99343.69;5071699;28;20202;-57
2022/06/06 11:37:24;;;;;;;12.00;5.97;;;;;;;23.49;80.91;99326.69;5069444;28;20188;-57
2022/06/06 11:40:28;;;;;;;8.90;6.67;;;;;;;23.63;81.07;99321.78;5070251;28;20203;-57
2022/06/06 11:43:19;;;;;;;10.67;6.03;;;;;;;23.76;80.98;99311.66;5045779;28;20187;-57
2022/06/06 11:46:36;;;;;;;11.80;5.97;;;;;;;23.84;80.36;99304.34;5071718;28;20199;-57
2022/06/06 11:49:33;;;;;;;9.00;5.88;;;;;;;23.90;80.32;99289.19;4998931;28;20445;-57
2022/06/06 11:52:32;;;;;;;7.57;5.37;;;;;;;23.97;78.57;99274.91;5009004;28;20320;-57
2022/06/06 11:55:25;;;;;;;9.47;5.27;;;;;;;24.10;76.49;99267.38;5061981;28;20277;-65
2022/06/06 11:58:22;;;;;;;7.10;4.43;;;;;;;24.21;75.44;99275.66;5052004;28;20196;-64
2022/06/06 12:01:07;;;;;;;8.70;4.90;;;;;;;24.36;75.30;99266.28;5051224;28;20215;-64
2022/06/06 12:04:07;;;;;;;7.23;5.27;;;;;;;24.55;74.26;99268.03;5052493;28;20195;-65
2022/06/06 12:07:10;;;;;;;8.13;4.20;;;;;;;24.84;73.48;99269.38;5052227;28;20253;-65
2022/06/06 12:09:52;;;;;;;10.57;4.30;;;;;;;25.02;70.81;99263.31;5041996;28;20231;-64
2022/06/06 12:12:53;;;;;;;6.60;2.90;;;;;;;25.24;67.83;99255.28;5052566;28;20184;-57
2022/06/06 12:15:46;;;;;;;9.40;4.00;;;;;;;25.50;66.79;99275.94;5052457;28;20204;-57
2022/06/06 12:18:31;;;;;;;8.02;4.35;;;;;;;25.66;67.61;99269.03;5071428;28;20457;-57
2022/06/06 12:21:40;;;;;;;5.83;3.13;;;;;;;25.79;65.13;99271.94;5071661;28;20203;-57
2022/06/06 12:24:29;;;;;;;8.23;3.77;;;;;;;25.81;65.40;99277.97;5072393;28;20183;-57
2022/06/06 12:27:17;;;;;;;4.27;3.03;;;;;;;25.99;63.98;99277.03;5071943;28;20271;-57
2022/06/06 12:30:30;;;;;;;5.97;3.40;;;;;;;26.11;64.12;99291.38;5071308;28;20192;-60
2022/06/06 12:33:02;;;;;;;5.20;3.03;;;;;;;26.19;62.92;99295.38;5071972;28;20223;-56
2022/06/06 12:35:38;;;;;;;5.50;3.70;;;;;;;26.19;63.14;99291.88;5072054;28;20199;-56
2022/06/06 12:38:18;;;;;;;4.50;3.20;;;;;;;26.22;62.12;99281.19;5068649;28;20288;-57
2022/06/06 12:40:58;;;;;;;5.30;2.80;;;;;;;26.15;60.88;99285.06;5071469;28;20499;-56
2022/06/06 12:43:50;;;;;;;5.80;2.87;;;;;;;26.36;60.94;99282.19;5055503;28;20196;-56
2022/06/06 12:46:42;;;;;;;5.07;3.23;;;;;;;26.43;59.85;99256.38;5051295;28;20199;-56
2022/06/06 12:49:30;;;;;;;2.77;2.57;;;;;;;26.68;59.53;99269.97;5056654;28;20294;-56
2022/06/06 12:52:19;;;;;;;3.40;2.70;;;;;;;26.72;57.93;99271.53;5051711;28;20201;-56
2022/06/06 12:55:32;;;;;;;5.90;2.80;;;;;;;26.90;58.17;99273.19;5051628;28;20212;-56
2022/06/06 12:58:26;;;;;;;4.50;3.07;;;;;;;26.93;57.64;99259.84;5051367;28;20199;-56